Time;durP1;ratioP1;P1;durP2;ratioP2;P2;SDS_P1;SDS_P2;PMS_P1;PMS_P2;Temp;Humidity;BMP_temperature;BMP_pressure;BME280_temperature;BME280_humidity;BME280_pressure;Samples;Min_cycle;Max_cycle;Signal;HPM_P1;HPM_P2
2022/05/15 00:02:08;;;;;;;14.02;5.50;;;11.20;99.90;;;;;;5051849;28;20135;-82
2022/05/15 00:04:34;;;;;;;17.33;6.05;;;11.20;99.90;;;;;;5068678;28;20493;-79
2022/05/15 00:07:00;;;;;;;16.23;5.82;;;11.20;99.90;;;;;;5093317;28;20133;-80
2022/05/15 00:09:25;;;;;;;18.75;6.00;;;11.20;99.90;;;;;;5064557;28;20054;-78
2022/05/15 00:11:51;;;;;;;15.60;6.15;;;11.20;99.90;;;;;;5063164;28;20048;-81
2022/05/15 00:14:17;;;;;;;16.25;6.60;;;11.20;99.90;;;;;;5053136;28;20068;-81
2022/05/15 00:16:43;;;;;;;12.10;5.45;;;11.10;99.90;;;;;;5069061;28;20048;-80
2022/05/15 00:19:09;;;;;;;15.10;6.18;;;11.00;99.90;;;;;;5050801;28;20083;-79
2022/05/15 00:21:36;;;;;;;17.73;6.43;;;11.00;99.90;;;;;;5082790;28;20110;-80
2022/05/15 00:24:03;;;;;;;14.02;6.60;;;11.10;99.90;;;;;;5085161;28;20053;-80
2022/05/15 00:26:29;;;;;;;15.63;6.25;;;10.90;99.90;;;;;;5068774;28;20048;-79
2022/05/15 00:28:55;;;;;;;16.50;6.18;;;10.90;99.90;;;;;;5067775;28;20054;-80
2022/05/15 00:31:21;;;;;;;16.88;5.70;;;10.90;99.90;;;;;;5085003;28;20449;-79
2022/05/15 00:33:47;;;;;;;14.20;5.57;;;10.80;99.90;;;;;;5053117;28;20072;-80
2022/05/15 00:36:13;;;;;;;14.25;5.65;;;10.80;99.90;;;;;;5067264;28;20480;-80
2022/05/15 00:38:39;;;;;;;12.48;5.28;;;10.80;99.90;;;;;;5067640;28;20245;-80
2022/05/15 00:41:05;;;;;;;9.10;4.32;;;10.80;99.90;;;;;;5068373;28;20481;-80
2022/05/15 00:43:36;;;;;;;7.97;3.92;;;10.80;99.90;;;;;;5052684;28;20053;-80
2022/05/15 00:46:04;;;;;;;8.65;4.28;;;10.80;99.90;;;;;;5052033;28;20056;-79
2022/05/15 00:48:30;;;;;;;9.68;4.43;;;10.70;99.90;;;;;;5067925;28;20135;-80
2022/05/15 00:50:57;;;;;;;11.77;5.07;;;10.70;99.90;;;;;;5067560;28;20104;-80
2022/05/15 00:53:23;;;;;;;10.13;4.90;;;10.70;99.90;;;;;;5050685;28;20057;-79
2022/05/15 00:55:52;;;;;;;11.70;4.68;;;10.60;99.90;;;;;;5053010;28;20109;-80
2022/05/15 00:58:33;;;;;;;20.40;5.50;;;10.60;99.90;;;;;;5050692;28;20088;-79
2022/05/15 01:00:59;;;;;;;7.72;4.70;;;10.60;99.90;;;;;;5049181;28;20044;-79
2022/05/15 01:03:26;;;;;;;9.02;4.68;;;10.80;99.90;;;;;;5068012;28;20048;-80
2022/05/15 01:05:54;;;;;;;10.52;5.35;;;10.60;99.90;;;;;;5068778;28;20048;-79
2022/05/15 01:08:21;;;;;;;9.27;4.85;;;10.60;99.90;;;;;;5068351;28;20057;-79
2022/05/15 01:10:50;;;;;;;8.60;4.75;;;10.50;99.90;;;;;;5065604;28;20136;-79
2022/05/15 01:13:18;;;;;;;12.38;4.90;;;10.50;99.90;;;;;;5068058;28;20117;-79
2022/05/15 01:15:45;;;;;;;10.07;5.30;;;10.50;99.90;;;;;;5050610;28;20283;-79
2022/05/15 01:18:11;;;;;;;9.70;4.95;;;10.50;99.90;;;;;;5067936;28;20056;-79
2022/05/15 01:20:39;;;;;;;9.60;4.88;;;10.50;99.90;;;;;;5050007;28;20123;-79
2022/05/15 01:23:05;;;;;;;10.20;4.82;;;10.40;99.90;;;;;;5064461;28;20512;-79
2022/05/15 01:25:34;;;;;;;10.15;4.90;;;10.50;99.90;;;;;;5067164;28;20047;-78
2022/05/15 01:28:10;;;;;;;10.18;4.50;;;10.50;99.90;;;;;;5051380;28;20044;-79
2022/05/15 01:30:38;;;;;;;11.90;5.15;;;10.40;99.90;;;;;;5065965;28;20068;-79
2022/05/15 01:33:05;;;;;;;12.40;5.57;;;10.40;99.90;;;;;;5065699;28;20543;-79
2022/05/15 01:35:31;;;;;;;9.75;4.68;;;10.50;99.90;;;;;;5083575;28;20123;-79
2022/05/15 01:37:57;;;;;;;13.73;5.60;;;10.50;99.90;;;;;;5065665;28;20675;-79
2022/05/15 01:40:23;;;;;;;14.30;4.72;;;10.50;99.90;;;;;;5068662;28;20048;-79
2022/05/15 01:42:48;;;;;;;9.93;5.25;;;10.50;99.90;;;;;;5063878;28;20044;-79
2022/05/15 01:45:15;;;;;;;13.57;5.63;;;10.50;99.90;;;;;;5068904;28;20045;-79
2022/05/15 01:47:41;;;;;;;13.25;5.53;;;10.50;99.90;;;;;;5072309;28;20444;-79
2022/05/15 01:50:08;;;;;;;12.10;5.47;;;10.50;99.90;;;;;;5058523;28;20056;-79
2022/05/15 01:52:34;;;;;;;11.68;5.22;;;10.50;99.90;;;;;;5052616;28;20060;-79
2022/05/15 01:55:00;;;;;;;11.52;5.05;;;10.50;99.90;;;;;;5049586;28;20560;-78
2022/05/15 01:57:26;;;;;;;11.25;4.68;;;10.50;99.90;;;;;;5049797;28;20044;-79
2022/05/15 01:59:52;;;;;;;11.48;5.22;;;10.50;99.90;;;;;;5066299;28;20296;-79
2022/05/15 02:02:18;;;;;;;13.07;5.22;;;10.40;99.90;;;;;;5051277;28;20041;-79
2022/05/15 02:04:44;;;;;;;15.35;5.22;;;10.30;99.90;;;;;;5082773;28;20052;-79
2022/05/15 02:07:10;;;;;;;15.40;5.57;;;10.30;99.90;;;;;;5033849;28;20068;-79
2022/05/15 02:09:35;;;;;;;11.35;5.53;;;10.30;99.90;;;;;;5066380;28;20052;-79
2022/05/15 02:12:01;;;;;;;12.77;5.32;;;10.20;99.90;;;;;;5066193;28;20048;-79
2022/05/15 02:14:27;;;;;;;12.07;4.85;;;10.20;99.90;;;;;;5049084;28;20083;-79
2022/05/15 02:16:54;;;;;;;11.30;4.88;;;10.20;99.90;;;;;;5050387;28;20052;-79
2022/05/15 02:19:20;;;;;;;8.90;4.75;;;10.20;99.90;;;;;;5053944;28;20071;-78
2022/05/15 02:21:47;;;;;;;13.05;5.20;;;10.10;99.90;;;;;;5073709;28;20052;-79
2022/05/15 02:24:14;;;;;;;11.55;5.43;;;10.10;99.90;;;;;;5067209;28;20052;-79
2022/05/15 02:26:40;;;;;;;11.73;4.70;;;10.00;99.90;;;;;;5082635;28;20044;-79
2022/05/15 02:29:07;;;;;;;11.90;5.05;;;10.00;99.90;;;;;;5067391;28;20036;-79
2022/05/15 02:31:33;;;;;;;11.57;5.00;;;10.00;99.90;;;;;;5066977;28;20049;-79
2022/05/15 02:34:00;;;;;;;11.15;4.05;;;10.10;99.90;;;;;;5033202;28;20051;-79
2022/05/15 02:36:27;;;;;;;11.57;5.07;;;9.90;99.90;;;;;;5045892;28;20079;-79
2022/05/15 02:38:53;;;;;;;12.13;4.85;;;9.90;99.90;;;;;;5065848;28;20052;-78
2022/05/15 02:41:18;;;;;;;8.60;4.55;;;10.00;99.90;;;;;;5051136;28;20094;-79
2022/05/15 02:43:44;;;;;;;10.25;4.90;;;9.80;99.90;;;;;;5048525;28;20047;-79
2022/05/15 02:46:10;;;;;;;11.82;5.40;;;9.90;99.90;;;;;;5047978;28;20036;-79
2022/05/15 02:51:20;;;;;;;10.10;4.50;;;9.80;99.90;;;;;;5064124;28;20072;-79
2022/05/15 02:53:46;;;;;;;9.18;4.45;;;9.70;99.90;;;;;;5066380;28;20091;-79
2022/05/15 02:56:21;;;;;;;9.57;4.65;;;9.70;99.90;;;;;;5046200;28;20049;-79
2022/05/15 02:58:47;;;;;;;7.85;4.40;;;9.70;99.90;;;;;;5051241;28;20127;-79
2022/05/15 03:01:13;;;;;;;9.77;4.03;;;9.70;99.90;;;;;;5050036;28;20075;-79
2022/05/15 03:03:39;;;;;;;10.43;5.38;;;9.70;99.90;;;;;;5085566;28;20465;-78
2022/05/15 03:06:06;;;;;;;12.02;5.25;;;9.70;99.90;;;;;;5072338;28;20048;-79
2022/05/15 03:08:38;;;;;;;9.40;4.68;;;9.70;99.90;;;;;;5049836;28;20052;-79
2022/05/15 03:11:04;;;;;;;15.00;5.35;;;9.60;99.90;;;;;;5066954;28;20084;-78
2022/05/15 03:13:31;;;;;;;13.98;5.22;;;9.60;99.90;;;;;;5066451;28;20075;-78
2022/05/15 03:15:57;;;;;;;12.68;5.35;;;9.60;99.90;;;;;;5065593;28;20045;-79
2022/05/15 03:18:23;;;;;;;16.05;5.05;;;9.60;99.90;;;;;;5065528;28;20044;-78
2022/05/15 03:20:49;;;;;;;13.75;5.00;;;9.60;99.90;;;;;;5049546;28;20123;-79
2022/05/15 03:23:15;;;;;;;12.15;5.05;;;9.50;99.90;;;;;;5067635;28;20053;-78
2022/05/15 03:25:41;;;;;;;12.65;4.80;;;9.50;99.90;;;;;;5064319;28;20103;-78
2022/05/15 03:28:09;;;;;;;12.18;4.60;;;9.50;99.90;;;;;;5048439;28;20406;-78
2022/05/15 03:30:40;;;;;;;13.15;5.18;;;9.70;99.90;;;;;;5065358;28;20041;-78
2022/05/15 03:33:08;;;;;;;13.55;5.43;;;9.60;99.90;;;;;;5066582;28;20124;-78
2022/05/15 03:35:35;;;;;;;11.40;5.03;;;9.50;99.90;;;;;;5049570;28;20889;-78
2022/05/15 03:38:02;;;;;;;12.13;4.70;;;9.50;99.90;;;;;;5064378;28;20106;-78
2022/05/15 03:40:28;;;;;;;8.68;4.45;;;9.50;99.90;;;;;;5070291;28;20044;-78
2022/05/15 03:42:54;;;;;;;9.45;4.68;;;9.50;99.90;;;;;;5069260;28;20504;-78
2022/05/15 03:45:20;;;;;;;10.57;4.22;;;9.50;99.90;;;;;;5052857;28;20113;-78
2022/05/15 03:47:47;;;;;;;12.35;5.10;;;9.50;99.90;;;;;;5066967;28;20128;-78
2022/05/15 03:50:14;;;;;;;11.43;4.28;;;9.40;99.90;;;;;;5034545;28;20060;-79
2022/05/15 03:52:40;;;;;;;10.38;4.63;;;9.40;99.90;;;;;;5053134;28;20044;-78
2022/05/15 03:55:06;;;;;;;10.02;5.28;;;9.40;99.90;;;;;;5081420;28;20140;-80
2022/05/15 03:57:32;;;;;;;12.68;4.95;;;9.40;99.90;;;;;;5069010;28;20116;-77
2022/05/15 03:59:58;;;;;;;11.27;4.78;;;9.40;99.90;;;;;;5033477;28;20119;-77
2022/05/15 04:02:24;;;;;;;14.45;5.43;;;9.40;99.90;;;;;;5050919;28;20040;-77
2022/05/15 04:04:49;;;;;;;13.63;5.40;;;9.40;99.90;;;;;;5047854;28;20041;-77
2022/05/15 04:07:15;;;;;;;12.90;4.63;;;9.40;99.90;;;;;;5067934;28;20110;-77
2022/05/15 04:09:41;;;;;;;11.07;4.43;;;9.40;99.90;;;;;;5065941;28;20056;-77
2022/05/15 04:12:11;;;;;;;11.25;5.18;;;9.40;99.90;;;;;;5050879;28;20083;-77
2022/05/15 04:14:38;;;;;;;10.65;4.15;;;9.50;99.90;;;;;;5051235;28;20141;-77
2022/05/15 04:17:05;;;;;;;11.02;4.70;;;9.40;99.90;;;;;;5066117;28;20861;-77
2022/05/15 04:19:32;;;;;;;12.68;5.25;;;9.40;99.90;;;;;;5051797;28;20059;-77
2022/05/15 04:22:02;;;;;;;12.98;4.75;;;9.40;99.90;;;;;;5067168;28;20907;-77
2022/05/15 04:24:28;;;;;;;15.27;5.55;;;9.50;99.90;;;;;;5036665;28;20080;-77
2022/05/15 04:26:54;;;;;;;14.13;5.25;;;9.50;99.90;;;;;;5050571;28;20055;-77
2022/05/15 04:29:20;;;;;;;13.98;4.80;;;9.50;99.90;;;;;;5050998;28;20497;-77
2022/05/15 04:31:46;;;;;;;9.35;4.85;;;9.60;99.90;;;;;;5065539;28;20040;-77
2022/05/15 04:34:12;;;;;;;16.27;5.05;;;9.50;99.90;;;;;;5069352;28;20137;-77
2022/05/15 04:36:38;;;;;;;12.20;4.35;;;9.60;99.90;;;;;;5052666;28;20080;-77
2022/05/15 04:39:05;;;;;;;13.85;5.07;;;9.60;99.90;;;;;;5067902;28;20401;-77
2022/05/15 04:41:31;;;;;;;11.57;4.78;;;9.80;99.90;;;;;;5064839;28;20109;-77
2022/05/15 04:43:58;;;;;;;13.23;4.95;;;9.60;99.90;;;;;;5068499;28;20052;-77
2022/05/15 04:46:27;;;;;;;13.02;4.85;;;9.60;99.90;;;;;;5052368;28;20060;-77
2022/05/15 04:48:53;;;;;;;11.23;5.20;;;9.70;99.90;;;;;;5052939;28;20059;-77
2022/05/15 04:51:19;;;;;;;13.40;4.88;;;9.70;99.90;;;;;;5049115;28;20389;-77
2022/05/15 04:53:45;;;;;;;15.02;4.75;;;9.70;99.90;;;;;;5052749;28;20149;-77
2022/05/15 04:56:10;;;;;;;15.25;4.72;;;9.70;99.90;;;;;;5070480;28;20074;-77
2022/05/15 04:58:36;;;;;;;11.07;4.82;;;10.00;99.90;;;;;;5086727;28;20454;-77
2022/05/15 05:01:02;;;;;;;10.48;4.90;;;9.80;99.90;;;;;;5033414;28;20052;-79
2022/05/15 05:03:28;;;;;;;14.38;4.95;;;9.80;99.90;;;;;;5067251;28;20048;-79
2022/05/15 05:05:54;;;;;;;12.68;5.22;;;9.80;99.90;;;;;;5047676;28;20057;-79
2022/05/15 05:08:20;;;;;;;15.90;5.47;;;9.90;99.90;;;;;;5066654;28;20060;-79
2022/05/15 05:10:45;;;;;;;12.80;4.75;;;9.90;99.90;;;;;;5065261;28;20060;-79
2022/05/15 05:13:11;;;;;;;15.63;4.88;;;10.00;99.90;;;;;;5045285;28;20048;-79
2022/05/15 05:15:37;;;;;;;14.23;5.32;;;10.00;99.90;;;;;;5033587;28;20049;-80
2022/05/15 05:18:03;;;;;;;15.68;5.18;;;10.00;99.90;;;;;;5051223;28;20056;-80
2022/05/15 05:20:29;;;;;;;13.10;5.05;;;10.00;99.90;;;;;;5063760;28;20052;-79
2022/05/15 05:22:54;;;;;;;17.58;5.35;;;10.10;99.90;;;;;;5046381;28;20055;-80
2022/05/15 05:25:20;;;;;;;13.23;4.47;;;10.10;99.90;;;;;;5064431;28;20052;-80
2022/05/15 05:27:46;;;;;;;16.23;5.72;;;10.20;99.90;;;;;;5050865;28;20139;-80
2022/05/15 05:30:20;;;;;;;15.65;4.82;;;10.30;99.90;;;;;;5049136;28;20542;-80
2022/05/15 05:32:47;;;;;;;19.00;5.55;;;10.30;99.90;;;;;;5067929;28;20048;-80
2022/05/15 05:35:15;;;;;;;14.77;5.35;;;10.40;99.90;;;;;;5033031;28;20136;-80
2022/05/15 05:37:41;;;;;;;20.45;5.40;;;10.50;99.90;;;;;;5050369;28;20055;-80
2022/05/15 05:40:08;;;;;;;16.45;6.35;;;10.60;99.90;;;;;;5050016;28;20136;-79
2022/05/15 05:42:34;;;;;;;14.35;5.30;;;10.70;99.90;;;;;;5070721;28;20048;-79
2022/05/15 05:45:02;;;;;;;14.18;5.32;;;10.80;99.90;;;;;;5051967;28;20048;-78
2022/05/15 05:47:29;;;;;;;17.65;5.05;;;10.90;99.90;;;;;;5051885;28;20056;-79
2022/05/15 05:49:55;;;;;;;16.80;5.65;;;10.90;99.90;;;;;;5087805;28;20485;-79
2022/05/15 05:52:21;;;;;;;16.67;5.45;;;11.10;99.90;;;;;;5070753;28;20102;-84
2022/05/15 05:54:47;;;;;;;15.30;5.45;;;11.20;99.90;;;;;;5050902;28;20060;-83
2022/05/15 05:57:14;;;;;;;20.15;5.45;;;11.30;99.90;;;;;;5049197;28;20046;-82
2022/05/15 05:59:40;;;;;;;16.17;5.28;;;11.40;99.90;;;;;;5065249;28;20393;-81
2022/05/15 06:02:06;;;;;;;21.35;5.57;;;11.50;99.90;;;;;;5052499;28;20056;-83
2022/05/15 06:04:46;;;;;;;15.27;5.53;;;11.60;99.90;;;;;;5050153;28;20041;-82
2022/05/15 06:07:19;;;;;;;20.95;5.75;;;11.70;99.90;;;;;;5069841;28;20083;-82
2022/05/15 06:09:46;;;;;;;18.27;5.80;;;11.90;99.90;;;;;;5049136;28;20131;-81
2022/05/15 06:12:15;;;;;;;16.38;5.75;;;12.00;99.90;;;;;;5082419;28;20075;-82
2022/05/15 06:14:41;;;;;;;14.20;5.35;;;12.20;99.90;;;;;;5064723;28;20045;-83
2022/05/15 06:17:07;;;;;;;18.98;5.47;;;12.30;99.90;;;;;;5045986;28;20078;-81
2022/05/15 06:19:34;;;;;;;18.20;5.88;;;12.40;99.90;;;;;;5044737;28;20102;-81
2022/05/15 06:22:00;;;;;;;16.65;5.13;;;12.50;99.90;;;;;;5059482;28;20051;-82
2022/05/15 06:24:25;;;;;;;17.30;5.55;;;12.70;99.90;;;;;;5043004;28;20045;-82
2022/05/15 06:26:58;;;;;;;21.08;5.85;;;12.80;99.90;;;;;;5047657;28;20040;-81
2022/05/15 06:29:25;;;;;;;15.38;5.32;;;12.90;99.90;;;;;;5049458;28;20547;-82
2022/05/15 06:31:50;;;;;;;16.45;5.57;;;13.10;99.90;;;;;;5032050;28;20123;-80
2022/05/15 06:34:16;;;;;;;17.75;5.55;;;13.20;99.90;;;;;;5048359;28;20548;-82
2022/05/15 06:36:42;;;;;;;18.20;5.85;;;13.30;99.90;;;;;;5059618;28;20041;-80
2022/05/15 06:39:08;;;;;;;16.08;5.55;;;13.50;99.90;;;;;;5065224;28;20616;-81
2022/05/15 06:41:34;;;;;;;15.85;5.75;;;13.60;99.90;;;;;;5049096;28;20061;-80
2022/05/15 06:44:00;;;;;;;13.40;4.55;;;13.80;99.90;;;;;;5049529;28;20048;-80
2022/05/15 06:46:27;;;;;;;14.77;5.20;;;13.90;99.90;;;;;;5064661;28;20060;-81
2022/05/15 06:48:53;;;;;;;16.90;5.85;;;14.20;99.90;;;;;;5064300;28;20063;-82
2022/05/15 06:51:18;;;;;;;18.08;5.07;;;14.30;99.90;;;;;;5050257;28;20044;-79
2022/05/15 06:53:45;;;;;;;17.15;5.28;;;14.50;99.90;;;;;;5067187;28;20044;-83
2022/05/15 06:58:56;;;;;;;15.63;4.93;;;14.80;99.90;;;;;;5047505;28;20048;-80
2022/05/15 07:01:22;;;;;;;13.15;4.63;;;15.00;99.90;;;;;;5048583;28;20059;-82
2022/05/15 07:03:48;;;;;;;15.80;4.90;;;15.20;99.90;;;;;;5063229;28;20051;-81
2022/05/15 07:06:15;;;;;;;14.77;5.00;;;15.30;99.90;;;;;;5083192;28;20055;-83
2022/05/15 07:08:42;;;;;;;18.60;4.72;;;15.50;99.90;;;;;;5080056;28;20052;-83
2022/05/15 07:11:10;;;;;;;13.20;4.65;;;15.70;99.90;;;;;;5055865;28;20048;-91
2022/05/15 07:13:36;;;;;;;16.02;5.22;;;15.80;99.90;;;;;;5054621;28;20041;-85
2022/05/15 07:16:02;;;;;;;18.05;5.00;;;16.00;99.90;;;;;;5052824;28;20057;-84
2022/05/15 07:18:28;;;;;;;12.25;4.30;;;16.20;99.90;;;;;;5062230;28;20048;-85
2022/05/15 07:20:54;;;;;;;15.73;4.93;;;16.30;99.90;;;;;;5047603;28;20051;-83
2022/05/15 07:23:20;;;;;;;14.35;4.05;;;16.40;99.90;;;;;;5043160;28;20093;-84
2022/05/15 07:25:48;;;;;;;9.80;3.70;;;16.60;99.90;;;;;;5064602;28;20048;-83
2022/05/15 07:28:14;;;;;;;13.88;5.13;;;16.70;99.90;;;;;;5046436;28;20048;-82
2022/05/15 07:30:39;;;;;;;11.88;4.10;;;16.90;99.90;;;;;;5046376;28;20045;-80
2022/05/15 07:33:06;;;;;;;11.23;4.20;;;17.10;99.90;;;;;;5045274;28;20485;-80
2022/05/15 07:35:32;;;;;;;15.20;4.32;;;17.30;99.90;;;;;;5047696;28;20102;-80
2022/05/15 07:37:57;;;;;;;13.05;3.88;;;17.50;99.90;;;;;;5061453;28;20481;-82
2022/05/15 07:40:23;;;;;;;13.27;3.72;;;17.60;99.90;;;;;;5078097;28;20052;-81
2022/05/15 07:42:49;;;;;;;11.00;3.88;;;17.80;99.90;;;;;;5043582;28;20056;-80
2022/05/15 07:45:15;;;;;;;13.43;3.72;;;18.10;99.90;;;;;;5048570;28;20048;-81
2022/05/15 07:47:41;;;;;;;11.52;3.63;;;18.30;99.90;;;;;;5046379;28;20048;-81
2022/05/15 07:50:09;;;;;;;12.00;4.00;;;18.50;99.90;;;;;;5050252;28;20048;-83
2022/05/15 07:52:35;;;;;;;10.48;3.55;;;18.80;99.90;;;;;;5049248;28;20075;-83
2022/05/15 07:55:01;;;;;;;13.05;3.97;;;19.00;99.90;;;;;;5050695;28;20091;-83
2022/05/15 07:57:27;;;;;;;9.30;3.03;;;19.20;99.90;;;;;;5054276;28;20076;-82
2022/05/15 07:59:53;;;;;;;11.25;3.67;;;19.40;99.90;;;;;;5063292;28;20527;-86
2022/05/15 08:02:19;;;;;;;8.75;3.38;;;19.70;99.90;;;;;;5044759;28;20076;-83
2022/05/15 08:10:13;;;;;;;12.10;3.30;;;20.40;99.90;;;;;;5049444;28;20048;-83
2022/05/15 08:12:39;;;;;;;12.60;3.45;;;20.60;99.90;;;;;;5061209;28;20123;-82
2022/05/15 08:15:07;;;;;;;10.38;3.67;;;20.70;99.90;;;;;;5027896;28;20135;-82
2022/05/15 08:17:33;;;;;;;10.90;2.95;;;20.80;99.90;;;;;;5044843;28;20132;-81
2022/05/15 08:25:42;;;;;;;9.93;3.25;;;21.10;99.90;;;;;;5050957;28;20543;-80
2022/05/15 08:28:08;;;;;;;10.32;3.17;;;21.40;99.90;;;;;;5047276;28;20129;-80
2022/05/15 08:30:34;;;;;;;8.23;2.80;;;21.50;99.90;;;;;;5059751;28;20080;-79
2022/05/15 08:32:59;;;;;;;10.90;3.25;;;21.80;99.90;;;;;;5045537;28;20051;-80
2022/05/15 08:35:27;;;;;;;6.85;2.70;;;22.10;99.90;;;;;;5044174;28;20044;-80
2022/05/15 08:37:53;;;;;;;8.35;2.70;;;22.20;99.90;;;;;;5047904;28;20052;-80
2022/05/15 08:40:25;;;;;;;7.85;2.75;;;22.40;99.90;;;;;;5076350;28;20040;-80
2022/05/15 08:42:57;;;;;;;11.90;3.15;;;22.80;99.90;;;;;;5059386;28;20055;-80
2022/05/15 08:45:33;;;;;;;8.75;3.35;;;23.00;99.90;;;;;;5047943;28;20048;-80
2022/05/15 08:48:12;;;;;;;11.90;3.28;;;23.00;99.50;;;;;;5063248;28;20041;-80
2022/05/15 08:50:48;;;;;;;10.90;2.90;;;23.20;99.70;;;;;;5061862;28;20059;-80
2022/05/15 08:53:21;;;;;;;12.40;3.45;;;23.40;98.50;;;;;;5077512;28;21352;-80
2022/05/15 08:55:55;;;;;;;9.60;3.42;;;23.70;98.90;;;;;;5045308;28;20056;-81
2022/05/15 08:58:45;;;;;;;10.27;3.20;;;24.00;98.60;;;;;;5064904;28;20048;-82
2022/05/15 09:01:15;;;;;;;10.32;3.30;;;24.10;95.00;;;;;;5061371;28;20044;-80
2022/05/15 09:03:40;;;;;;;13.68;3.20;;;24.30;97.50;;;;;;5063904;28;20052;-81
2022/05/15 09:06:15;;;;;;;11.02;3.38;;;24.20;96.70;;;;;;5030864;28;20059;-81
2022/05/15 09:08:47;;;;;;;9.98;3.25;;;24.30;96.10;;;;;;5061794;28;20048;-81
2022/05/15 09:11:15;;;;;;;9.23;2.58;;;24.50;96.50;;;;;;5061839;28;20344;-81
2022/05/15 09:14:00;;;;;;;8.80;3.13;;;24.80;96.30;;;;;;5044057;28;21401;-81
2022/05/15 09:16:27;;;;;;;13.40;2.97;;;25.00;92.70;;;;;;5062561;28;20055;-82
2022/05/15 09:19:02;;;;;;;12.77;3.00;;;25.10;94.60;;;;;;5045265;28;20069;-82
2022/05/15 09:21:28;;;;;;;11.35;2.80;;;25.30;93.10;;;;;;5046688;28;20040;-82
2022/05/15 09:23:57;;;;;;;9.15;3.40;;;25.20;93.60;;;;;;5060042;28;20150;-81
2022/05/15 09:26:41;;;;;;;11.40;3.35;;;25.20;92.80;;;;;;5045221;28;20135;-82
2022/05/15 09:29:21;;;;;;;9.23;2.90;;;25.40;92.30;;;;;;5067020;28;20043;-82
2022/05/15 09:31:47;;;;;;;8.65;2.63;;;25.60;91.90;;;;;;5069870;28;20099;-83
2022/05/15 09:34:30;;;;;;;10.38;2.83;;;25.80;92.00;;;;;;5053240;28;20055;-81
2022/05/15 09:38:27;;;;;;;9.48;3.00;;;26.10;90.60;;;;;;5060081;28;20077;-81
2022/05/15 09:39:46;;;;;;;7.45;2.80;;;26.30;90.70;;;;;;5061785;28;20052;-81
2022/05/15 09:45:25;;;;;;;11.65;2.90;;;26.60;88.30;;;;;;5058272;28;21688;-82
2022/05/15 09:47:51;;;;;;;10.23;3.38;;;26.50;81.50;;;;;;5056710;28;20053;-82
2022/05/15 09:50:38;;;;;;;10.02;3.00;;;26.50;84.60;;;;;;5041336;28;20122;-82
2022/05/15 09:53:14;;;;;;;8.68;2.50;;;26.70;80.60;;;;;;5060056;28;20060;-82
2022/05/15 09:55:40;;;;;;;9.60;2.97;;;26.70;81.90;;;;;;5043029;28;20048;-82
2022/05/15 09:58:18;;;;;;;10.23;3.22;;;26.90;83.90;;;;;;5059851;28;20053;-82
2022/05/15 10:00:43;;;;;;;9.80;2.92;;;27.10;82.60;;;;;;5053149;28;20048;-82
2022/05/15 10:03:23;;;;;;;11.90;3.50;;;27.30;82.70;;;;;;5061028;28;20037;-87
2022/05/15 10:06:03;;;;;;;9.88;3.58;;;27.30;78.10;;;;;;5043142;28;20044;-82
2022/05/15 10:08:30;;;;;;;9.07;3.10;;;27.30;79.10;;;;;;5049603;28;20067;-84
2022/05/15 10:11:01;;;;;;;10.32;3.25;;;27.20;78.90;;;;;;5032908;28;20109;-84
2022/05/15 10:13:44;;;;;;;9.02;3.03;;;27.20;77.10;;;;;;5065318;28;20044;-84
2022/05/15 10:16:21;;;;;;;7.30;3.05;;;27.40;77.50;;;;;;5049883;28;20045;-84
2022/05/15 10:19:04;;;;;;;9.55;3.20;;;27.60;77.10;;;;;;5066706;28;20496;-84
2022/05/15 10:21:41;;;;;;;9.68;3.08;;;27.80;72.30;;;;;;5067392;28;20044;-84
2022/05/15 10:24:14;;;;;;;8.57;3.00;;;27.90;73.50;;;;;;5050146;28;20080;-83
2022/05/15 10:27:10;;;;;;;11.18;3.42;;;28.00;74.20;;;;;;5061992;28;20044;-82
2022/05/15 10:29:58;;;;;;;;;;;28.20;71.50;;;;;;5049432;28;20520;-82
2022/05/15 10:32:29;;;;;;;7.70;2.92;;;28.30;72.60;;;;;;5065305;28;19931;-82
2022/05/15 10:34:56;;;;;;;10.35;3.30;;;28.30;73.40;;;;;;5066735;28;20044;-82
2022/05/15 10:37:57;;;;;;;8.73;2.72;;;28.00;70.20;;;;;;5046241;28;20082;-84
2022/05/15 10:40:43;;;;;;;10.93;3.15;;;27.80;68.00;;;;;;5063380;28;20052;-83
2022/05/15 10:43:30;;;;;;;10.63;2.95;;;27.70;70.40;;;;;;5049689;28;20504;-81
2022/05/15 10:46:19;;;;;;;11.00;2.97;;;27.80;71.10;;;;;;5065307;28;20899;-83
2022/05/15 10:49:15;;;;;;;8.07;2.92;;;27.80;69.70;;;;;;5053049;28;20087;-87
2022/05/15 10:52:05;;;;;;;9.98;3.50;;;28.00;68.10;;;;;;5044657;28;20055;-84
2022/05/15 10:58:03;;;;;;;9.45;3.17;;;27.90;68.70;;;;;;5067107;28;20095;-83
2022/05/15 11:00:44;;;;;;;12.13;3.42;;;28.00;68.30;;;;;;5050360;28;20059;-84
2022/05/15 11:03:26;;;;;;;9.27;3.13;;;28.20;67.80;;;;;;5066685;28;20052;-83
2022/05/15 11:06:18;;;;;;;8.93;2.90;;;28.20;66.90;;;;;;5050343;28;20566;-84
2022/05/15 11:09:01;;;;;;;7.15;3.08;;;28.10;66.00;;;;;;5046107;28;20052;-83
2022/05/15 11:11:43;;;;;;;8.43;2.75;;;27.80;66.70;;;;;;5062398;28;20073;-82
2022/05/15 11:14:34;;;;;;;10.20;2.90;;;27.70;66.60;;;;;;5065344;28;20082;-89
2022/05/15 11:17:26;;;;;;;11.82;3.67;;;27.70;66.80;;;;;;5047359;28;20493;-81
2022/05/15 11:19:53;;;;;;;10.50;3.25;;;27.70;64.20;;;;;;5066748;28;20045;-82
2022/05/15 11:22:40;;;;;;;8.93;3.33;;;27.40;66.40;;;;;;5048226;28;20049;-82
2022/05/15 11:25:29;;;;;;;12.70;3.50;;;27.50;66.80;;;;;;5047352;28;20052;-81
2022/05/15 11:28:04;;;;;;;10.82;2.83;;;27.50;66.20;;;;;;5065837;28;20169;-81
2022/05/15 11:30:33;;;;;;;7.93;2.63;;;27.70;67.80;;;;;;5082128;28;20087;-81
2022/05/15 11:33:05;;;;;;;8.02;2.78;;;27.70;66.30;;;;;;5065745;28;20062;-81
2022/05/15 11:35:35;;;;;;;9.30;2.90;;;27.90;64.10;;;;;;5064988;28;20474;-81
2022/05/15 11:38:11;;;;;;;9.18;3.03;;;28.10;65.00;;;;;;5067872;28;20090;-81
2022/05/15 11:40:46;;;;;;;9.75;2.97;;;28.50;65.40;;;;;;5065886;28;20057;-82
2022/05/15 11:43:28;;;;;;;9.52;2.65;;;28.90;64.70;;;;;;5047740;28;20048;-81
2022/05/15 11:46:09;;;;;;;9.90;2.88;;;29.20;63.60;;;;;;5050087;28;20390;-82
2022/05/15 11:48:38;;;;;;;8.30;2.75;;;29.60;63.00;;;;;;5050017;28;20131;-82
2022/05/15 11:51:12;;;;;;;7.28;2.63;;;29.90;62.50;;;;;;5053231;28;20044;-81
2022/05/15 11:54:04;;;;;;;7.30;2.40;;;30.10;61.60;;;;;;5052683;28;20048;-81
2022/05/15 11:56:36;;;;;;;10.75;2.85;;;30.20;59.60;;;;;;5076390;28;20051;-81
2022/05/15 11:59:03;;;;;;;7.90;2.75;;;30.20;60.20;;;;;;5090969;28;20041;-82
2022/05/15 12:01:38;;;;;;;8.95;3.10;;;30.40;59.00;;;;;;5069439;28;20047;-81
2022/05/15 12:04:15;;;;;;;8.57;2.63;;;30.40;58.70;;;;;;5087084;28;20485;-81
2022/05/15 12:06:56;;;;;;;9.82;2.90;;;30.30;58.20;;;;;;5067118;28;20481;-82
2022/05/15 12:09:24;;;;;;;7.10;2.55;;;30.30;57.60;;;;;;5064948;28;20481;-82
2022/05/15 12:11:52;;;;;;;7.88;2.60;;;30.50;58.60;;;;;;5065841;28;20041;-83
2022/05/15 12:14:39;;;;;;;;;;;;;;;;;;;;;
2022/05/15 12:17:17;;;;;;;7.60;2.30;;;30.70;56.90;;;;;;5069099;28;20047;-83
2022/05/15 12:19:45;;;;;;;7.13;2.65;;;30.90;57.50;;;;;;5070447;28;20052;-83
2022/05/15 12:22:14;;;;;;;6.95;2.75;;;31.00;56.50;;;;;;5052474;28;20044;-82
2022/05/15 12:24:48;;;;;;;8.48;2.90;;;31.00;55.90;;;;;;5066077;28;20052;-83
2022/05/15 12:27:20;;;;;;;7.90;2.80;;;31.20;55.60;;;;;;5052546;28;20057;-83
2022/05/15 12:30:16;;;;;;;8.00;2.53;;;31.20;56.00;;;;;;5072661;28;20052;-83
2022/05/15 12:32:51;;;;;;;7.25;2.83;;;31.30;53.20;;;;;;5079553;28;20078;-82
2022/05/15 12:35:25;;;;;;;8.18;2.90;;;31.30;54.80;;;;;;5048003;28;20048;-82
2022/05/15 12:37:55;;;;;;;8.32;2.90;;;31.30;55.00;;;;;;5053103;28;20059;-82
2022/05/15 12:40:24;;;;;;;7.57;2.70;;;31.30;54.20;;;;;;5051017;28;20492;-82
2022/05/15 12:42:50;;;;;;;9.52;2.70;;;31.20;54.10;;;;;;5051395;28;20084;-81
2022/05/15 12:45:20;;;;;;;7.35;2.65;;;31.10;53.50;;;;;;5049622;28;20123;-82
2022/05/15 12:48:17;;;;;;;7.65;2.40;;;31.00;53.50;;;;;;5047898;28;20059;-81
2022/05/15 12:50:50;;;;;;;9.27;3.00;;;31.00;53.30;;;;;;5043331;28;20056;-81
2022/05/15 12:53:23;;;;;;;9.35;2.67;;;31.10;52.50;;;;;;5067997;28;20053;-82
2022/05/15 12:55:50;;;;;;;9.07;2.60;;;31.20;53.60;;;;;;5050560;28;20117;-82
2022/05/15 12:58:32;;;;;;;7.95;2.60;;;31.40;53.60;;;;;;5065962;28;20049;-82
2022/05/15 13:01:03;;;;;;;7.25;2.50;;;31.60;53.40;;;;;;5052420;28;20080;-82
2022/05/15 13:03:30;;;;;;;7.10;2.67;;;31.60;53.60;;;;;;5051254;28;20377;-82
2022/05/15 13:05:59;;;;;;;7.65;2.85;;;31.80;53.20;;;;;;5050533;28;20440;-82
2022/05/15 13:08:25;;;;;;;6.13;2.10;;;31.70;52.80;;;;;;5049634;28;20079;-82
2022/05/15 13:10:54;;;;;;;5.03;2.08;;;31.60;52.30;;;;;;5049932;28;20045;-81
2022/05/15 13:13:30;;;;;;;7.97;2.38;;;31.40;52.10;;;;;;5066260;28;20044;-82
2022/05/15 13:15:58;;;;;;;8.05;2.55;;;31.40;52.90;;;;;;5065522;28;20045;-82
2022/05/15 13:18:27;;;;;;;8.68;2.72;;;31.40;52.10;;;;;;5068817;28;20049;-81
2022/05/15 13:20:56;;;;;;;8.18;2.90;;;31.30;51.70;;;;;;5052073;28;20105;-81